sensor_id;sensor_type;location;lat;lon;timestamp;P1;durP1;ratioP1;P2;durP2;ratioP2
68942;SDS011;60852;52.190;4.422;2022-09-03T00:01:05;3.76;;;3.76;;
68942;SDS011;60852;52.190;4.422;2022-09-03T00:03:44;4.16;;;4.16;;
68942;SDS011;60852;52.190;4.422;2022-09-03T00:06:17;3.67;;;3.67;;
68942;SDS011;60852;52.190;4.422;2022-09-03T00:09:02;4.03;;;4.03;;
68942;SDS011;60852;52.190;4.422;2022-09-03T00:14:49;3.78;;;3.78;;
68942;SDS011;60852;52.190;4.422;2022-09-03T00:17:23;3.74;;;3.74;;
68942;SDS011;60852;52.190;4.422;2022-09-03T00:19:59;3.86;;;3.86;;
68942;SDS011;60852;52.190;4.422;2022-09-03T00:22:36;3.82;;;3.82;;
68942;SDS011;60852;52.190;4.422;2022-09-03T00:25:08;3.92;;;3.92;;
68942;SDS011;60852;52.190;4.422;2022-09-03T00:27:39;3.86;;;3.86;;
68942;SDS011;60852;52.190;4.422;2022-09-03T00:30:11;3.78;;;3.78;;
68942;SDS011;60852;52.190;4.422;2022-09-03T00:35:39;3.60;;;3.60;;
68942;SDS011;60852;52.190;4.422;2022-09-03T00:38:11;3.80;;;3.80;;
68942;SDS011;60852;52.190;4.422;2022-09-03T00:40:55;3.73;;;3.73;;
68942;SDS011;60852;52.190;4.422;2022-09-03T00:43:59;3.76;;;3.76;;
68942;SDS011;60852;52.190;4.422;2022-09-03T00:46:44;4.02;;;4.02;;
68942;SDS011;60852;52.190;4.422;2022-09-03T00:51:49;4.06;;;4.06;;
68942;SDS011;60852;52.190;4.422;2022-09-03T01:00:12;3.70;;;3.70;;
68942;SDS011;60852;52.190;4.422;2022-09-03T01:05:56;3.57;;;3.57;;
68942;SDS011;60852;52.190;4.422;2022-09-03T01:13:54;3.76;;;3.76;;
68942;SDS011;60852;52.190;4.422;2022-09-03T01:16:45;3.98;;;3.98;;
68942;SDS011;60852;52.190;4.422;2022-09-03T01:22:40;3.79;;;3.79;;
68942;SDS011;60852;52.190;4.422;2022-09-03T01:34:13;3.99;;;3.99;;
68942;SDS011;60852;52.190;4.422;2022-09-03T01:39:27;4.10;;;4.10;;
68942;SDS011;60852;52.190;4.422;2022-09-03T01:42:08;3.80;;;3.80;;
68942;SDS011;60852;52.190;4.422;2022-09-03T01:44:56;4.20;;;4.20;;
68942;SDS011;60852;52.190;4.422;2022-09-03T01:50:33;3.76;;;3.76;;
68942;SDS011;60852;52.190;4.422;2022-09-03T01:56:07;4.04;;;4.04;;
68942;SDS011;60852;52.190;4.422;2022-09-03T02:01:23;4.03;;;4.03;;
68942;SDS011;60852;52.190;4.422;2022-09-03T02:03:57;4.21;;;4.21;;
68942;SDS011;60852;52.190;4.422;2022-09-03T02:06:25;3.97;;;3.97;;
68942;SDS011;60852;52.190;4.422;2022-09-03T02:08:51;3.85;;;3.85;;
68942;SDS011;60852;52.190;4.422;2022-09-03T02:11:17;3.87;;;3.87;;
68942;SDS011;60852;52.190;4.422;2022-09-03T02:13:44;4.06;;;4.06;;
68942;SDS011;60852;52.190;4.422;2022-09-03T02:16:15;3.98;;;3.98;;
68942;SDS011;60852;52.190;4.422;2022-09-03T02:18:46;3.79;;;3.79;;
68942;SDS011;60852;52.190;4.422;2022-09-03T02:21:17;4.15;;;4.15;;
68942;SDS011;60852;52.190;4.422;2022-09-03T02:23:45;4.04;;;4.04;;
68942;SDS011;60852;52.190;4.422;2022-09-03T02:26:13;4.04;;;4.04;;
68942;SDS011;60852;52.190;4.422;2022-09-03T02:28:43;3.89;;;3.89;;
68942;SDS011;60852;52.190;4.422;2022-09-03T02:31:08;3.92;;;3.92;;
68942;SDS011;60852;52.190;4.422;2022-09-03T02:33:36;3.83;;;3.83;;
68942;SDS011;60852;52.190;4.422;2022-09-03T02:36:04;3.99;;;3.99;;
68942;SDS011;60852;52.190;4.422;2022-09-03T02:38:32;3.76;;;3.76;;
68942;SDS011;60852;52.190;4.422;2022-09-03T02:40:58;3.83;;;3.83;;
68942;SDS011;60852;52.190;4.422;2022-09-03T02:43:44;3.95;;;3.95;;
68942;SDS011;60852;52.190;4.422;2022-09-03T02:46:16;3.75;;;3.75;;
68942;SDS011;60852;52.190;4.422;2022-09-03T02:48:46;3.64;;;3.64;;
68942;SDS011;60852;52.190;4.422;2022-09-03T02:51:12;3.69;;;3.69;;
68942;SDS011;60852;52.190;4.422;2022-09-03T02:53:37;3.68;;;3.68;;
68942;SDS011;60852;52.190;4.422;2022-09-03T02:56:03;3.82;;;3.82;;
68942;SDS011;60852;52.190;4.422;2022-09-03T02:58:29;4.00;;;4.00;;
68942;SDS011;60852;52.190;4.422;2022-09-03T03:00:56;3.96;;;3.96;;
68942;SDS011;60852;52.190;4.422;2022-09-03T03:03:22;4.11;;;4.11;;
68942;SDS011;60852;52.190;4.422;2022-09-03T03:05:52;4.05;;;4.05;;
68942;SDS011;60852;52.190;4.422;2022-09-03T03:08:21;4.11;;;4.11;;
68942;SDS011;60852;52.190;4.422;2022-09-03T03:10:57;4.10;;;4.10;;
68942;SDS011;60852;52.190;4.422;2022-09-03T03:13:28;3.86;;;3.86;;
68942;SDS011;60852;52.190;4.422;2022-09-03T03:15:58;4.20;;;4.20;;
68942;SDS011;60852;52.190;4.422;2022-09-03T03:18:26;4.13;;;4.13;;
68942;SDS011;60852;52.190;4.422;2022-09-03T03:20:52;4.12;;;4.12;;
68942;SDS011;60852;52.190;4.422;2022-09-03T03:23:18;4.20;;;4.20;;
68942;SDS011;60852;52.190;4.422;2022-09-03T03:25:44;4.36;;;4.36;;
68942;SDS011;60852;52.190;4.422;2022-09-03T03:28:09;4.15;;;4.15;;
68942;SDS011;60852;52.190;4.422;2022-09-03T03:30:38;4.66;;;4.66;;
68942;SDS011;60852;52.190;4.422;2022-09-03T03:33:07;4.47;;;4.47;;
68942;SDS011;60852;52.190;4.422;2022-09-03T03:35:33;4.29;;;4.29;;
68942;SDS011;60852;52.190;4.422;2022-09-03T03:38:00;4.43;;;4.43;;
68942;SDS011;60852;52.190;4.422;2022-09-03T03:40:26;4.70;;;4.70;;
68942;SDS011;60852;52.190;4.422;2022-09-03T03:42:52;4.55;;;4.55;;
68942;SDS011;60852;52.190;4.422;2022-09-03T03:45:17;4.47;;;4.47;;
68942;SDS011;60852;52.190;4.422;2022-09-03T03:47:44;4.64;;;4.64;;
68942;SDS011;60852;52.190;4.422;2022-09-03T03:50:09;4.29;;;4.29;;
68942;SDS011;60852;52.190;4.422;2022-09-03T03:52:35;4.41;;;4.41;;
68942;SDS011;60852;52.190;4.422;2022-09-03T03:55:00;4.37;;;4.37;;
68942;SDS011;60852;52.190;4.422;2022-09-03T03:57:28;4.51;;;4.51;;
68942;SDS011;60852;52.190;4.422;2022-09-03T03:59:54;4.57;;;4.57;;
68942;SDS011;60852;52.190;4.422;2022-09-03T04:02:20;4.67;;;4.67;;
68942;SDS011;60852;52.190;4.422;2022-09-03T04:04:46;4.67;;;4.67;;
68942;SDS011;60852;52.190;4.422;2022-09-03T04:07:11;4.78;;;4.78;;
68942;SDS011;60852;52.190;4.422;2022-09-03T04:09:37;4.51;;;4.51;;
68942;SDS011;60852;52.190;4.422;2022-09-03T04:12:02;4.57;;;4.57;;
68942;SDS011;60852;52.190;4.422;2022-09-03T04:14:33;4.84;;;4.84;;
68942;SDS011;60852;52.190;4.422;2022-09-03T04:16:59;4.88;;;4.88;;
68942;SDS011;60852;52.190;4.422;2022-09-03T04:19:27;4.75;;;4.75;;
68942;SDS011;60852;52.190;4.422;2022-09-03T04:21:54;4.80;;;4.80;;
68942;SDS011;60852;52.190;4.422;2022-09-03T04:24:20;5.02;;;5.02;;
68942;SDS011;60852;52.190;4.422;2022-09-03T04:26:45;5.15;;;5.15;;
68942;SDS011;60852;52.190;4.422;2022-09-03T04:29:11;5.09;;;5.09;;
68942;SDS011;60852;52.190;4.422;2022-09-03T04:31:37;5.11;;;5.11;;
68942;SDS011;60852;52.190;4.422;2022-09-03T04:34:03;5.09;;;5.09;;
68942;SDS011;60852;52.190;4.422;2022-09-03T04:36:32;5.17;;;5.17;;
68942;SDS011;60852;52.190;4.422;2022-09-03T04:38:59;5.23;;;5.23;;
68942;SDS011;60852;52.190;4.422;2022-09-03T04:41:28;5.30;;;5.30;;
68942;SDS011;60852;52.190;4.422;2022-09-03T04:43:56;5.16;;;5.16;;
68942;SDS011;60852;52.190;4.422;2022-09-03T04:46:25;5.24;;;5.24;;
68942;SDS011;60852;52.190;4.422;2022-09-03T04:48:57;5.29;;;5.29;;
68942;SDS011;60852;52.190;4.422;2022-09-03T04:51:24;5.16;;;5.16;;
68942;SDS011;60852;52.190;4.422;2022-09-03T04:53:52;5.12;;;5.12;;
68942;SDS011;60852;52.190;4.422;2022-09-03T04:56:22;4.80;;;4.80;;
68942;SDS011;60852;52.190;4.422;2022-09-03T04:58:53;4.88;;;4.88;;
68942;SDS011;60852;52.190;4.422;2022-09-03T05:01:22;5.11;;;5.11;;
68942;SDS011;60852;52.190;4.422;2022-09-03T05:03:49;5.03;;;5.03;;
68942;SDS011;60852;52.190;4.422;2022-09-03T05:06:18;4.89;;;4.89;;
68942;SDS011;60852;52.190;4.422;2022-09-03T05:08:47;4.82;;;4.82;;
68942;SDS011;60852;52.190;4.422;2022-09-03T05:11:13;4.74;;;4.74;;
68942;SDS011;60852;52.190;4.422;2022-09-03T05:13:38;4.73;;;4.73;;
68942;SDS011;60852;52.190;4.422;2022-09-03T05:16:05;4.87;;;4.87;;
68942;SDS011;60852;52.190;4.422;2022-09-03T05:18:33;4.88;;;4.88;;
68942;SDS011;60852;52.190;4.422;2022-09-03T05:21:03;4.94;;;4.94;;
68942;SDS011;60852;52.190;4.422;2022-09-03T05:23:34;4.61;;;4.61;;
68942;SDS011;60852;52.190;4.422;2022-09-03T05:26:02;4.76;;;4.76;;
68942;SDS011;60852;52.190;4.422;2022-09-03T05:28:33;4.71;;;4.71;;
68942;SDS011;60852;52.190;4.422;2022-09-03T05:31:02;4.74;;;4.74;;
68942;SDS011;60852;52.190;4.422;2022-09-03T05:33:32;4.68;;;4.68;;
68942;SDS011;60852;52.190;4.422;2022-09-03T05:36:07;4.41;;;4.41;;
68942;SDS011;60852;52.190;4.422;2022-09-03T05:38:34;4.89;;;4.89;;
68942;SDS011;60852;52.190;4.422;2022-09-03T05:41:00;4.63;;;4.63;;
68942;SDS011;60852;52.190;4.422;2022-09-03T05:43:27;4.57;;;4.57;;
68942;SDS011;60852;52.190;4.422;2022-09-03T05:46:00;4.61;;;4.61;;
68942;SDS011;60852;52.190;4.422;2022-09-03T05:48:30;4.36;;;4.36;;
68942;SDS011;60852;52.190;4.422;2022-09-03T05:51:07;4.60;;;4.60;;
68942;SDS011;60852;52.190;4.422;2022-09-03T05:53:41;4.61;;;4.61;;
68942;SDS011;60852;52.190;4.422;2022-09-03T05:56:09;4.56;;;4.56;;
68942;SDS011;60852;52.190;4.422;2022-09-03T05:58:42;4.48;;;4.48;;
68942;SDS011;60852;52.190;4.422;2022-09-03T06:01:10;4.72;;;4.72;;
68942;SDS011;60852;52.190;4.422;2022-09-03T06:03:41;4.82;;;4.82;;
68942;SDS011;60852;52.190;4.422;2022-09-03T06:06:08;4.45;;;4.45;;
68942;SDS011;60852;52.190;4.422;2022-09-03T06:08:35;4.15;;;4.15;;
68942;SDS011;60852;52.190;4.422;2022-09-03T06:11:05;4.26;;;4.26;;
68942;SDS011;60852;52.190;4.422;2022-09-03T06:13:31;4.50;;;4.50;;
68942;SDS011;60852;52.190;4.422;2022-09-03T06:15:59;4.56;;;4.56;;
68942;SDS011;60852;52.190;4.422;2022-09-03T06:18:27;4.56;;;4.56;;
68942;SDS011;60852;52.190;4.422;2022-09-03T06:20:54;4.47;;;4.47;;
68942;SDS011;60852;52.190;4.422;2022-09-03T06:23:25;4.52;;;4.52;;
68942;SDS011;60852;52.190;4.422;2022-09-03T06:25:59;4.25;;;4.25;;
68942;SDS011;60852;52.190;4.422;2022-09-03T06:28:28;4.16;;;4.16;;
68942;SDS011;60852;52.190;4.422;2022-09-03T06:30:56;3.86;;;3.86;;
68942;SDS011;60852;52.190;4.422;2022-09-03T06:33:23;3.51;;;3.51;;
68942;SDS011;60852;52.190;4.422;2022-09-03T06:35:55;3.56;;;3.56;;
68942;SDS011;60852;52.190;4.422;2022-09-03T06:38:23;3.82;;;3.82;;
68942;SDS011;60852;52.190;4.422;2022-09-03T06:40:52;3.82;;;3.82;;
68942;SDS011;60852;52.190;4.422;2022-09-03T06:43:22;3.59;;;3.59;;
68942;SDS011;60852;52.190;4.422;2022-09-03T06:45:58;3.84;;;3.84;;
68942;SDS011;60852;52.190;4.422;2022-09-03T06:48:26;3.86;;;3.86;;
68942;SDS011;60852;52.190;4.422;2022-09-03T06:53:21;3.64;;;3.64;;
68942;SDS011;60852;52.190;4.422;2022-09-03T06:55:52;3.77;;;3.77;;
68942;SDS011;60852;52.190;4.422;2022-09-03T06:58:28;3.69;;;3.69;;
68942;SDS011;60852;52.190;4.422;2022-09-03T07:01:01;3.92;;;3.92;;
68942;SDS011;60852;52.190;4.422;2022-09-03T07:03:29;3.73;;;3.73;;
68942;SDS011;60852;52.190;4.422;2022-09-03T07:05:58;3.80;;;3.80;;
68942;SDS011;60852;52.190;4.422;2022-09-03T07:08:29;3.64;;;3.64;;
68942;SDS011;60852;52.190;4.422;2022-09-03T07:11:00;3.86;;;3.86;;
68942;SDS011;60852;52.190;4.422;2022-09-03T07:13:40;3.65;;;3.65;;
68942;SDS011;60852;52.190;4.422;2022-09-03T07:16:09;3.49;;;3.49;;
68942;SDS011;60852;52.190;4.422;2022-09-03T07:18:36;3.76;;;3.76;;
68942;SDS011;60852;52.190;4.422;2022-09-03T07:21:07;3.64;;;3.64;;
68942;SDS011;60852;52.190;4.422;2022-09-03T07:23:35;3.85;;;3.85;;
68942;SDS011;60852;52.190;4.422;2022-09-03T07:26:04;3.82;;;3.82;;
68942;SDS011;60852;52.190;4.422;2022-09-03T07:28:36;3.82;;;3.82;;
68942;SDS011;60852;52.190;4.422;2022-09-03T07:31:05;3.92;;;3.92;;
68942;SDS011;60852;52.190;4.422;2022-09-03T07:33:37;3.65;;;3.65;;
68942;SDS011;60852;52.190;4.422;2022-09-03T07:36:04;3.52;;;3.52;;
68942;SDS011;60852;52.190;4.422;2022-09-03T07:38:41;3.65;;;3.65;;
68942;SDS011;60852;52.190;4.422;2022-09-03T07:41:11;3.77;;;3.77;;
68942;SDS011;60852;52.190;4.422;2022-09-03T07:43:39;3.61;;;3.61;;
68942;SDS011;60852;52.190;4.422;2022-09-03T07:46:14;3.75;;;3.75;;
68942;SDS011;60852;52.190;4.422;2022-09-03T07:48:57;3.84;;;3.84;;
68942;SDS011;60852;52.190;4.422;2022-09-03T07:51:27;3.47;;;3.47;;
68942;SDS011;60852;52.190;4.422;2022-09-03T07:53:55;3.70;;;3.70;;
68942;SDS011;60852;52.190;4.422;2022-09-03T07:56:24;3.60;;;3.60;;
68942;SDS011;60852;52.190;4.422;2022-09-03T07:58:51;3.71;;;3.71;;
68942;SDS011;60852;52.190;4.422;2022-09-03T08:01:17;3.68;;;3.68;;
68942;SDS011;60852;52.190;4.422;2022-09-03T08:03:46;3.88;;;3.88;;
68942;SDS011;60852;52.190;4.422;2022-09-03T08:06:14;3.78;;;3.78;;
68942;SDS011;60852;52.190;4.422;2022-09-03T08:08:40;3.89;;;3.89;;
68942;SDS011;60852;52.190;4.422;2022-09-03T08:11:10;4.00;;;4.00;;
68942;SDS011;60852;52.190;4.422;2022-09-03T08:13:38;4.01;;;4.01;;
68942;SDS011;60852;52.190;4.422;2022-09-03T08:16:05;3.76;;;3.76;;
68942;SDS011;60852;52.190;4.422;2022-09-03T08:18:35;3.68;;;3.68;;
68942;SDS011;60852;52.190;4.422;2022-09-03T08:21:06;3.66;;;3.66;;
68942;SDS011;60852;52.190;4.422;2022-09-03T08:23:38;3.77;;;3.77;;
68942;SDS011;60852;52.190;4.422;2022-09-03T08:26:04;3.81;;;3.81;;
68942;SDS011;60852;52.190;4.422;2022-09-03T08:28:31;3.63;;;3.63;;
68942;SDS011;60852;52.190;4.422;2022-09-03T08:31:03;3.63;;;3.63;;
68942;SDS011;60852;52.190;4.422;2022-09-03T08:33:34;3.73;;;3.73;;
68942;SDS011;60852;52.190;4.422;2022-09-03T08:36:06;3.50;;;3.50;;
68942;SDS011;60852;52.190;4.422;2022-09-03T08:38:37;3.66;;;3.66;;
68942;SDS011;60852;52.190;4.422;2022-09-03T08:46:34;3.65;;;3.65;;
68942;SDS011;60852;52.190;4.422;2022-09-03T08:49:12;3.57;;;3.57;;
68942;SDS011;60852;52.190;4.422;2022-09-03T08:51:50;3.73;;;3.73;;
68942;SDS011;60852;52.190;4.422;2022-09-03T08:54:20;3.64;;;3.64;;
68942;SDS011;60852;52.190;4.422;2022-09-03T08:56:50;3.79;;;3.79;;
68942;SDS011;60852;52.190;4.422;2022-09-03T08:59:19;3.41;;;3.41;;
68942;SDS011;60852;52.190;4.422;2022-09-03T09:01:50;3.63;;;3.63;;
68942;SDS011;60852;52.190;4.422;2022-09-03T09:04:28;4.07;;;4.07;;
68942;SDS011;60852;52.190;4.422;2022-09-03T09:07:04;3.77;;;3.77;;
68942;SDS011;60852;52.190;4.422;2022-09-03T09:09:42;3.56;;;3.56;;
68942;SDS011;60852;52.190;4.422;2022-09-03T09:12:45;3.82;;;3.82;;
68942;SDS011;60852;52.190;4.422;2022-09-03T09:21:14;3.93;;;3.93;;
68942;SDS011;60852;52.190;4.422;2022-09-03T09:23:48;3.91;;;3.91;;
68942;SDS011;60852;52.190;4.422;2022-09-03T09:26:16;3.63;;;3.63;;
68942;SDS011;60852;52.190;4.422;2022-09-03T09:28:46;4.17;;;4.17;;
68942;SDS011;60852;52.190;4.422;2022-09-03T09:31:18;3.93;;;3.93;;
68942;SDS011;60852;52.190;4.422;2022-09-03T09:33:44;3.90;;;3.90;;
68942;SDS011;60852;52.190;4.422;2022-09-03T09:36:14;3.70;;;3.70;;
68942;SDS011;60852;52.190;4.422;2022-09-03T09:38:43;3.91;;;3.91;;
68942;SDS011;60852;52.190;4.422;2022-09-03T09:41:12;4.07;;;4.07;;
68942;SDS011;60852;52.190;4.422;2022-09-03T09:43:39;3.49;;;3.49;;
68942;SDS011;60852;52.190;4.422;2022-09-03T09:46:29;3.69;;;3.69;;
68942;SDS011;60852;52.190;4.422;2022-09-03T09:48:56;3.30;;;3.30;;
68942;SDS011;60852;52.190;4.422;2022-09-03T09:51:23;3.54;;;3.54;;
68942;SDS011;60852;52.190;4.422;2022-09-03T09:56:38;3.46;;;3.46;;
68942;SDS011;60852;52.190;4.422;2022-09-03T09:59:10;3.37;;;3.37;;
68942;SDS011;60852;52.190;4.422;2022-09-03T10:01:38;3.21;;;3.21;;
68942;SDS011;60852;52.190;4.422;2022-09-03T10:04:12;3.32;;;3.32;;
68942;SDS011;60852;52.190;4.422;2022-09-03T10:06:52;3.36;;;3.36;;
68942;SDS011;60852;52.190;4.422;2022-09-03T10:09:24;3.17;;;3.17;;
68942;SDS011;60852;52.190;4.422;2022-09-03T10:15:02;3.74;;;3.74;;
68942;SDS011;60852;52.190;4.422;2022-09-03T10:20:18;3.55;;;3.55;;
68942;SDS011;60852;52.190;4.422;2022-09-03T10:25:39;3.16;;;3.16;;
68942;SDS011;60852;52.190;4.422;2022-09-03T10:28:15;3.39;;;3.39;;
68942;SDS011;60852;52.190;4.422;2022-09-03T10:33:34;3.15;;;3.15;;
68942;SDS011;60852;52.190;4.422;2022-09-03T10:39:24;3.26;;;3.26;;
68942;SDS011;60852;52.190;4.422;2022-09-03T10:48:15;2.77;;;2.77;;
68942;SDS011;60852;52.190;4.422;2022-09-03T10:51:05;3.03;;;3.03;;
68942;SDS011;60852;52.190;4.422;2022-09-03T11:04:52;2.46;;;2.46;;
68942;SDS011;60852;52.190;4.422;2022-09-03T11:07:26;2.82;;;2.82;;
68942;SDS011;60852;52.190;4.422;2022-09-03T11:15:39;2.65;;;2.65;;
68942;SDS011;60852;52.190;4.422;2022-09-03T11:18:18;2.71;;;2.71;;
68942;SDS011;60852;52.190;4.422;2022-09-03T11:21:11;2.94;;;2.94;;
68942;SDS011;60852;52.190;4.422;2022-09-03T11:23:41;2.97;;;2.97;;
68942;SDS011;60852;52.190;4.422;2022-09-03T11:26:14;2.99;;;2.99;;
68942;SDS011;60852;52.190;4.422;2022-09-03T11:31:20;2.99;;;2.99;;
68942;SDS011;60852;52.190;4.422;2022-09-03T11:34:00;3.36;;;3.36;;
68942;SDS011;60852;52.190;4.422;2022-09-03T11:36:33;3.02;;;3.02;;
68942;SDS011;60852;52.190;4.422;2022-09-03T11:39:12;3.42;;;3.42;;
68942;SDS011;60852;52.190;4.422;2022-09-03T11:41:42;3.08;;;3.08;;
68942;SDS011;60852;52.190;4.422;2022-09-03T11:44:21;2.99;;;2.99;;
68942;SDS011;60852;52.190;4.422;2022-09-03T11:46:57;2.90;;;2.90;;
68942;SDS011;60852;52.190;4.422;2022-09-03T11:49:27;3.14;;;3.14;;
68942;SDS011;60852;52.190;4.422;2022-09-03T11:51:59;2.90;;;2.90;;
68942;SDS011;60852;52.190;4.422;2022-09-03T11:54:26;2.99;;;2.99;;
68942;SDS011;60852;52.190;4.422;2022-09-03T11:59:38;2.97;;;2.97;;
68942;SDS011;60852;52.190;4.422;2022-09-03T12:10:29;2.91;;;2.91;;
68942;SDS011;60852;52.190;4.422;2022-09-03T12:13:11;2.90;;;2.90;;
68942;SDS011;60852;52.190;4.422;2022-09-03T12:18:30;2.82;;;2.82;;
68942;SDS011;60852;52.190;4.422;2022-09-03T12:21:01;2.82;;;2.82;;
68942;SDS011;60852;52.190;4.422;2022-09-03T12:26:13;2.97;;;2.97;;
68942;SDS011;60852;52.190;4.422;2022-09-03T12:28:43;2.94;;;2.94;;
68942;SDS011;60852;52.190;4.422;2022-09-03T12:31:16;2.58;;;2.58;;
68942;SDS011;60852;52.190;4.422;2022-09-03T12:34:09;2.85;;;2.85;;
68942;SDS011;60852;52.190;4.422;2022-09-03T12:36:40;2.88;;;2.88;;
68942;SDS011;60852;52.190;4.422;2022-09-03T12:39:20;3.21;;;3.21;;
68942;SDS011;60852;52.190;4.422;2022-09-03T12:44:30;3.01;;;3.01;;
68942;SDS011;60852;52.190;4.422;2022-09-03T12:47:03;2.85;;;2.85;;
68942;SDS011;60852;52.190;4.422;2022-09-03T12:49:37;2.86;;;2.86;;
68942;SDS011;60852;52.190;4.422;2022-09-03T12:52:14;3.22;;;3.22;;
68942;SDS011;60852;52.190;4.422;2022-09-03T12:55:07;3.21;;;3.21;;
68942;SDS011;60852;52.190;4.422;2022-09-03T13:00:45;3.24;;;3.24;;
68942;SDS011;60852;52.190;4.422;2022-09-03T13:06:07;3.08;;;3.08;;
68942;SDS011;60852;52.190;4.422;2022-09-03T13:08:40;2.94;;;2.94;;
68942;SDS011;60852;52.190;4.422;2022-09-03T13:11:14;2.86;;;2.86;;
68942;SDS011;60852;52.190;4.422;2022-09-03T13:13:51;2.81;;;2.81;;
68942;SDS011;60852;52.190;4.422;2022-09-03T13:26:57;3.69;;;3.69;;
68942;SDS011;60852;52.190;4.422;2022-09-03T13:29:47;3.79;;;3.79;;
68942;SDS011;60852;52.190;4.422;2022-09-03T13:35:03;3.08;;;3.08;;
68942;SDS011;60852;52.190;4.422;2022-09-03T13:42:54;3.49;;;3.49;;
68942;SDS011;60852;52.190;4.422;2022-09-03T13:45:47;3.52;;;3.52;;
68942;SDS011;60852;52.190;4.422;2022-09-03T13:48:40;3.41;;;3.41;;
68942;SDS011;60852;52.190;4.422;2022-09-03T13:51:27;3.67;;;3.67;;
68942;SDS011;60852;52.190;4.422;2022-09-03T13:54:00;3.60;;;3.60;;
68942;SDS011;60852;52.190;4.422;2022-09-03T13:57:18;3.21;;;3.21;;
68942;SDS011;60852;52.190;4.422;2022-09-03T14:14:18;3.20;;;3.20;;
68942;SDS011;60852;52.190;4.422;2022-09-03T14:17:09;3.69;;;3.69;;
68942;SDS011;60852;52.190;4.422;2022-09-03T14:19:51;3.75;;;3.75;;
68942;SDS011;60852;52.190;4.422;2022-09-03T14:22:38;4.22;;;4.22;;
68942;SDS011;60852;52.190;4.422;2022-09-03T14:25:25;3.39;;;3.39;;
68942;SDS011;60852;52.190;4.422;2022-09-03T14:27:52;3.63;;;3.63;;
68942;SDS011;60852;52.190;4.422;2022-09-03T14:33:18;3.58;;;3.58;;
68942;SDS011;60852;52.190;4.422;2022-09-03T14:49:38;3.88;;;3.88;;
68942;SDS011;60852;52.190;4.422;2022-09-03T14:52:21;3.55;;;3.55;;
68942;SDS011;60852;52.190;4.422;2022-09-03T15:00:20;3.38;;;3.38;;
68942;SDS011;60852;52.190;4.422;2022-09-03T15:03:16;4.29;;;4.29;;
68942;SDS011;60852;52.190;4.422;2022-09-03T15:06:03;3.89;;;3.89;;
68942;SDS011;60852;52.190;4.422;2022-09-03T15:08:45;3.62;;;3.62;;
68942;SDS011;60852;52.190;4.422;2022-09-03T15:11:31;3.82;;;3.82;;
68942;SDS011;60852;52.190;4.422;2022-09-03T15:14:25;4.31;;;4.31;;
68942;SDS011;60852;52.190;4.422;2022-09-03T15:22:56;3.11;;;3.11;;
68942;SDS011;60852;52.190;4.422;2022-09-03T15:28:48;3.42;;;3.42;;
68942;SDS011;60852;52.190;4.422;2022-09-03T15:31:43;5.20;;;5.20;;
68942;SDS011;60852;52.190;4.422;2022-09-03T15:37:07;3.85;;;3.85;;
68942;SDS011;60852;52.190;4.422;2022-09-03T15:42:49;3.44;;;3.44;;
68942;SDS011;60852;52.190;4.422;2022-09-03T15:47:55;3.44;;;3.44;;
68942;SDS011;60852;52.190;4.422;2022-09-03T15:50:54;3.40;;;3.40;;
68942;SDS011;60852;52.190;4.422;2022-09-03T15:59:20;3.48;;;3.48;;
68942;SDS011;60852;52.190;4.422;2022-09-03T16:08:03;4.10;;;4.10;;
68942;SDS011;60852;52.190;4.422;2022-09-03T16:19:33;3.96;;;3.96;;
68942;SDS011;60852;52.190;4.422;2022-09-03T16:22:25;3.81;;;3.81;;
68942;SDS011;60852;52.190;4.422;2022-09-03T16:25:06;3.88;;;3.88;;
68942;SDS011;60852;52.190;4.422;2022-09-03T16:33:17;3.85;;;3.85;;
68942;SDS011;60852;52.190;4.422;2022-09-03T16:38:41;3.44;;;3.44;;
68942;SDS011;60852;52.190;4.422;2022-09-03T16:41:24;3.54;;;3.54;;
68942;SDS011;60852;52.190;4.422;2022-09-03T16:44:00;3.81;;;3.81;;
68942;SDS011;60852;52.190;4.422;2022-09-03T16:46:39;3.53;;;3.53;;
68942;SDS011;60852;52.190;4.422;2022-09-03T16:52:11;3.69;;;3.69;;
68942;SDS011;60852;52.190;4.422;2022-09-03T17:06:15;3.27;;;3.27;;
68942;SDS011;60852;52.190;4.422;2022-09-03T17:09:21;3.56;;;3.56;;
68942;SDS011;60852;52.190;4.422;2022-09-03T17:12:39;3.42;;;3.42;;
68942;SDS011;60852;52.190;4.422;2022-09-03T17:17:35;3.97;;;3.97;;
68942;SDS011;60852;52.190;4.422;2022-09-03T17:20:36;3.39;;;3.39;;
68942;SDS011;60852;52.190;4.422;2022-09-03T17:23:12;3.61;;;3.61;;
68942;SDS011;60852;52.190;4.422;2022-09-03T17:26:06;3.93;;;3.93;;
68942;SDS011;60852;52.190;4.422;2022-09-03T17:28:42;3.87;;;3.87;;
68942;SDS011;60852;52.190;4.422;2022-09-03T17:31:39;3.74;;;3.74;;
68942;SDS011;60852;52.190;4.422;2022-09-03T17:34:19;3.81;;;3.81;;
68942;SDS011;60852;52.190;4.422;2022-09-03T17:43:06;3.81;;;3.81;;
68942;SDS011;60852;52.190;4.422;2022-09-03T17:46:04;3.89;;;3.89;;
68942;SDS011;60852;52.190;4.422;2022-09-03T17:48:57;4.22;;;4.22;;
68942;SDS011;60852;52.190;4.422;2022-09-03T17:51:29;5.02;;;5.02;;
68942;SDS011;60852;52.190;4.422;2022-09-03T17:54:03;5.82;;;5.82;;
68942;SDS011;60852;52.190;4.422;2022-09-03T17:56:53;5.53;;;5.53;;
68942;SDS011;60852;52.190;4.422;2022-09-03T18:02:30;4.14;;;4.14;;
68942;SDS011;60852;52.190;4.422;2022-09-03T18:05:07;4.14;;;4.14;;
68942;SDS011;60852;52.190;4.422;2022-09-03T18:10:32;4.27;;;4.27;;
68942;SDS011;60852;52.190;4.422;2022-09-03T18:13:13;4.18;;;4.18;;
68942;SDS011;60852;52.190;4.422;2022-09-03T18:15:52;4.35;;;4.35;;
68942;SDS011;60852;52.190;4.422;2022-09-03T18:18:26;4.72;;;4.72;;
68942;SDS011;60852;52.190;4.422;2022-09-03T18:20:58;4.46;;;4.46;;
68942;SDS011;60852;52.190;4.422;2022-09-03T18:26:42;4.31;;;4.31;;
68942;SDS011;60852;52.190;4.422;2022-09-03T18:30:16;4.99;;;4.99;;
68942;SDS011;60852;52.190;4.422;2022-09-03T18:32:43;7.72;;;7.72;;
68942;SDS011;60852;52.190;4.422;2022-09-03T18:35:28;5.10;;;5.10;;
68942;SDS011;60852;52.190;4.422;2022-09-03T18:38:14;4.86;;;4.86;;
68942;SDS011;60852;52.190;4.422;2022-09-03T18:53:10;4.94;;;4.94;;
68942;SDS011;60852;52.190;4.422;2022-09-03T19:05:16;5.81;;;5.81;;
68942;SDS011;60852;52.190;4.422;2022-09-03T19:08:20;5.82;;;5.82;;
68942;SDS011;60852;52.190;4.422;2022-09-03T19:14:41;6.22;;;6.22;;
68942;SDS011;60852;52.190;4.422;2022-09-03T19:20:35;6.61;;;6.61;;
68942;SDS011;60852;52.190;4.422;2022-09-03T19:23:23;6.17;;;6.17;;
68942;SDS011;60852;52.190;4.422;2022-09-03T19:26:17;6.03;;;6.03;;
68942;SDS011;60852;52.190;4.422;2022-09-03T19:30:05;5.94;;;5.94;;
68942;SDS011;60852;52.190;4.422;2022-09-03T19:32:43;5.58;;;5.58;;
68942;SDS011;60852;52.190;4.422;2022-09-03T19:35:48;6.39;;;6.39;;
68942;SDS011;60852;52.190;4.422;2022-09-03T19:38:56;5.98;;;5.98;;
68942;SDS011;60852;52.190;4.422;2022-09-03T19:44:48;4.84;;;4.84;;
68942;SDS011;60852;52.190;4.422;2022-09-03T19:48:07;4.53;;;4.53;;
68942;SDS011;60852;52.190;4.422;2022-09-03T19:51:18;4.62;;;4.62;;
68942;SDS011;60852;52.190;4.422;2022-09-03T19:54:06;4.45;;;4.45;;
68942;SDS011;60852;52.190;4.422;2022-09-03T19:56:53;4.66;;;4.66;;
68942;SDS011;60852;52.190;4.422;2022-09-03T19:59:40;5.34;;;5.34;;
68942;SDS011;60852;52.190;4.422;2022-09-03T20:02:27;5.16;;;5.16;;
68942;SDS011;60852;52.190;4.422;2022-09-03T20:05:16;5.35;;;5.35;;
68942;SDS011;60852;52.190;4.422;2022-09-03T20:08:03;5.50;;;5.50;;
68942;SDS011;60852;52.190;4.422;2022-09-03T20:10:50;5.00;;;5.00;;
68942;SDS011;60852;52.190;4.422;2022-09-03T20:13:20;5.45;;;5.45;;
68942;SDS011;60852;52.190;4.422;2022-09-03T20:18:29;5.03;;;5.03;;
68942;SDS011;60852;52.190;4.422;2022-09-03T20:24:11;5.71;;;5.71;;
68942;SDS011;60852;52.190;4.422;2022-09-03T20:27:17;6.53;;;6.53;;
68942;SDS011;60852;52.190;4.422;2022-09-03T20:30:03;8.00;;;8.00;;
68942;SDS011;60852;52.190;4.422;2022-09-03T20:32:39;8.58;;;8.58;;
68942;SDS011;60852;52.190;4.422;2022-09-03T20:35:31;9.31;;;9.31;;